createdAt,value
2019-03-21T00:01:48.053Z,94.65
2019-03-21T00:04:13.856Z,94.32
2019-03-21T00:06:39.632Z,94.49
2019-03-21T00:09:07.526Z,94.29
2019-03-21T00:12:00.450Z,94.40
2019-03-21T00:14:51.497Z,94.27
2019-03-21T00:17:32.736Z,93.97
2019-03-21T00:19:58.570Z,93.97
2019-03-21T00:22:24.328Z,93.60
2019-03-21T00:24:50.132Z,94.04
2019-03-21T00:27:15.926Z,94.07
2019-03-21T00:29:41.731Z,94.23
2019-03-21T00:32:07.508Z,94.28
2019-03-21T00:34:33.297Z,94.24
2019-03-21T00:36:59.090Z,94.26
2019-03-21T00:39:32.600Z,94.29
2019-03-21T00:41:52.598Z,94.48
2019-03-21T00:44:18.657Z,94.32
2019-03-21T00:46:44.589Z,94.38
2019-03-21T00:49:10.384Z,94.10
2019-03-21T00:51:36.184Z,94.36
2019-03-21T00:54:01.966Z,94.53
2019-03-21T00:56:27.765Z,94.58
2019-03-21T00:58:53.553Z,94.22
2019-03-21T01:01:19.350Z,94.14
2019-03-21T01:03:45.224Z,94.25
2019-03-21T01:06:11.011Z,94.08
2019-03-21T01:08:36.787Z,94.14
2019-03-21T01:11:02.587Z,94.14
2019-03-21T01:13:31.379Z,94.19
2019-03-21T01:15:57.195Z,94.24
2019-03-21T01:18:22.989Z,94.45
2019-03-21T01:20:48.772Z,94.17
2019-03-21T01:23:14.549Z,94.30
2019-03-21T01:25:53.085Z,94.28
2019-03-21T01:28:18.874Z,94.30
2019-03-21T01:30:44.655Z,93.96
2019-03-21T01:33:10.431Z,94.31
2019-03-21T01:35:37.522Z,94.36
2019-03-21T01:38:03.335Z,94.27
2019-03-21T01:40:47.872Z,94.27
2019-03-21T01:43:13.671Z,94.39
2019-03-21T01:45:39.550Z,94.39
2019-03-21T01:48:05.343Z,94.32
2019-03-21T01:50:38.584Z,94.39
2019-03-21T01:53:04.383Z,94.36
2019-03-21T01:55:30.155Z,94.36
2019-03-21T01:57:55.942Z,94.52
2019-03-21T02:00:27.864Z,94.57
2019-03-21T02:02:55.767Z,94.82
2019-03-21T02:05:21.568Z,94.36
2019-03-21T02:07:47.356Z,94.36
2019-03-21T02:10:15.041Z,94.75
2019-03-21T02:12:40.838Z,94.93
2019-03-21T02:15:10.120Z,94.95
2019-03-21T02:17:35.928Z,94.89
2019-03-21T02:20:03.524Z,94.93
2019-03-21T02:22:29.325Z,95.13
2019-03-21T02:24:55.100Z,95.00
2019-03-21T02:27:20.899Z,94.91
2019-03-21T02:29:46.683Z,94.78
2019-03-21T02:32:12.474Z,94.57
2019-03-21T02:34:38.263Z,95.00
2019-03-21T02:37:04.058Z,94.89
2019-03-21T02:39:29.840Z,94.93
2019-03-21T02:41:55.633Z,95.13
2019-03-21T02:44:21.423Z,95.23
2019-03-21T02:46:47.240Z,95.08
2019-03-21T02:49:13.018Z,95.13
2019-03-21T02:51:38.808Z,95.12
2019-03-21T02:54:04.589Z,95.28
2019-03-21T02:56:30.373Z,95.14
2019-03-21T02:58:56.261Z,95.33
2019-03-21T03:01:22.052Z,95.13
2019-03-21T03:03:47.849Z,95.16
2019-03-21T03:06:13.627Z,95.34
2019-03-21T03:08:39.426Z,95.12
2019-03-21T03:11:14.087Z,95.21
2019-03-21T03:13:42.687Z,95.11
2019-03-21T03:16:08.500Z,95.13
2019-03-21T03:18:34.275Z,95.29
2019-03-21T03:21:00.054Z,95.12
2019-03-21T03:23:25.848Z,95.15
2019-03-21T03:25:51.842Z,95.02
2019-03-21T03:28:23.934Z,94.98
2019-03-21T03:30:51.950Z,94.74
2019-03-21T03:33:17.738Z,94.74
2019-03-21T03:35:43.513Z,94.60
2019-03-21T03:38:09.313Z,94.64
2019-03-21T03:40:43.220Z,94.65
2019-03-21T03:43:09.047Z,94.81
2019-03-21T03:45:38.442Z,94.56
2019-03-21T03:48:04.712Z,94.31
2019-03-21T03:50:30.517Z,94.50
2019-03-21T03:52:57.396Z,94.50
2019-03-21T03:55:23.193Z,94.19
2019-03-21T03:57:52.573Z,94.24
2019-03-21T04:00:19.989Z,94.06
2019-03-21T04:02:47.292Z,94.65
2019-03-21T04:05:13.199Z,94.65
2019-03-21T04:07:40.479Z,94.26
2019-03-21T04:10:15.902Z,94.20
2019-03-21T04:12:41.792Z,94.20
2019-03-21T04:15:12.203Z,93.97
2019-03-21T04:17:37.999Z,94.01
2019-03-21T04:20:10.239Z,93.86
2019-03-21T04:22:36.024Z,93.92
2019-03-21T04:25:02.118Z,93.88
2019-03-21T04:27:27.907Z,93.50
2019-03-21T04:29:53.707Z,93.50
2019-03-21T04:32:19.487Z,93.62
2019-03-21T04:34:45.280Z,93.74
2019-03-21T04:37:11.069Z,93.51
2019-03-21T04:39:36.856Z,93.44
2019-03-21T04:42:02.727Z,93.44
2019-03-21T04:44:28.525Z,93.43
2019-03-21T04:46:54.330Z,93.62
2019-03-21T04:49:20.098Z,93.91
2019-03-21T04:51:45.884Z,93.99
2019-03-21T04:54:11.659Z,93.97
2019-03-21T04:56:37.455Z,94.02
2019-03-21T04:59:03.237Z,94.18
2019-03-21T05:01:29.025Z,94.26
2019-03-21T05:03:54.819Z,94.41
2019-03-21T05:06:20.607Z,94.49
2019-03-21T05:08:46.397Z,94.55
2019-03-21T05:11:12.582Z,94.53
2019-03-21T05:13:38.367Z,94.65
2019-03-21T05:16:14.248Z,94.58
2019-03-21T05:18:56.500Z,94.76
2019-03-21T05:21:23.101Z,94.31
2019-03-21T05:23:48.902Z,95.01
2019-03-21T05:26:14.694Z,95.01
2019-03-21T05:28:40.479Z,94.74
2019-03-21T05:31:25.186Z,94.61
2019-03-21T05:33:50.968Z,94.65
2019-03-21T05:36:16.764Z,94.71
2019-03-21T05:38:42.543Z,94.88
2019-03-21T05:41:08.338Z,94.98
2019-03-21T05:43:46.432Z,95.04
2019-03-21T05:46:12.257Z,95.02
2019-03-21T05:48:38.035Z,95.02
2019-03-21T05:51:03.824Z,94.83
2019-03-21T05:53:29.615Z,94.94
2019-03-21T05:55:55.386Z,95.13
2019-03-21T05:58:21.183Z,95.54
2019-03-21T06:01:03.050Z,95.53
2019-03-21T06:03:32.445Z,95.58
2019-03-21T06:06:05.096Z,95.61
2019-03-21T06:08:34.091Z,95.47
2019-03-21T06:10:59.972Z,95.50
2019-03-21T06:13:25.760Z,95.68
2019-03-21T06:15:51.543Z,95.80
2019-03-21T06:18:47.290Z,95.89
2019-03-21T06:21:16.893Z,96.21
2019-03-21T06:23:52.568Z,96.21
2019-03-21T06:26:36.767Z,96.09
2019-03-21T06:29:02.564Z,96.14
2019-03-21T06:31:28.335Z,96.44
2019-03-21T06:33:54.187Z,96.47
2019-03-21T06:36:19.934Z,96.40
2019-03-21T06:38:45.727Z,96.34
2019-03-21T06:41:11.500Z,96.37
2019-03-21T06:43:37.292Z,96.45
2019-03-21T06:46:03.062Z,96.20
2019-03-21T06:48:28.856Z,96.25
2019-03-21T06:50:54.665Z,96.26
2019-03-21T06:53:20.454Z,96.34
2019-03-21T06:55:46.250Z,96.21
2019-03-21T06:58:12.046Z,96.26
2019-03-21T07:00:37.829Z,96.22
2019-03-21T07:03:04.443Z,96.14
2019-03-21T07:05:30.219Z,96.21
2019-03-21T07:07:56.013Z,96.28
2019-03-21T07:10:21.783Z,96.25
2019-03-21T07:12:47.581Z,96.14
2019-03-21T07:15:13.355Z,95.96
2019-03-21T07:17:39.152Z,96.01
2019-03-21T07:20:07.940Z,96.05
2019-03-21T07:22:33.731Z,96.14
2019-03-21T07:24:59.526Z,96.14
2019-03-21T07:27:25.313Z,96.18
2019-03-21T07:29:51.105Z,96.23
2019-03-21T07:32:16.877Z,96.03
2019-03-21T07:34:42.686Z,95.93
2019-03-21T07:37:08.458Z,95.87
2019-03-21T07:39:34.257Z,95.83
2019-03-21T07:42:01.384Z,95.75
2019-03-21T07:44:27.343Z,95.61
2019-03-21T07:46:53.116Z,95.52
2019-03-21T07:49:18.939Z,95.57
2019-03-21T07:51:45.283Z,95.51
2019-03-21T07:54:11.227Z,94.94
2019-03-21T07:56:37.003Z,94.94
2019-03-21T07:59:02.894Z,95.19
2019-03-21T08:01:28.680Z,95.23
2019-03-21T08:03:54.481Z,94.97
2019-03-21T08:06:20.262Z,94.80
2019-03-21T08:08:46.053Z,94.92
2019-03-21T08:11:11.845Z,94.92
2019-03-21T08:13:37.635Z,95.16
2019-03-21T08:16:03.424Z,95.06
2019-03-21T08:18:29.236Z,94.80
2019-03-21T08:20:58.399Z,94.86
2019-03-21T08:23:22.693Z,94.78
2019-03-21T08:25:48.484Z,94.78
2019-03-21T08:28:14.268Z,94.42
2019-03-21T08:31:01.790Z,94.42
2019-03-21T08:33:27.612Z,94.62
2019-03-21T08:35:53.387Z,94.42
2019-03-21T08:38:19.185Z,94.48
2019-03-21T08:40:44.989Z,94.40
2019-03-21T08:43:10.768Z,94.40
2019-03-21T08:45:36.563Z,94.13
2019-03-21T08:48:02.346Z,94.22
2019-03-21T08:50:28.131Z,94.27
2019-03-21T08:52:53.917Z,94.31
2019-03-21T08:55:19.714Z,94.25
2019-03-21T08:57:45.492Z,94.16
2019-03-21T09:00:12.888Z,94.16
2019-03-21T09:02:38.673Z,93.70
2019-03-21T09:05:04.965Z,93.71
2019-03-21T09:07:30.744Z,93.82
2019-03-21T09:09:56.535Z,93.43
2019-03-21T09:12:22.328Z,93.10
2019-03-21T09:14:48.107Z,92.74
2019-03-21T09:17:13.884Z,92.51
2019-03-21T09:19:39.692Z,92.41
2019-03-21T09:22:05.473Z,92.14
2019-03-21T09:24:31.382Z,92.32
2019-03-21T09:26:57.160Z,91.86
2019-03-21T09:29:22.955Z,91.78
2019-03-21T09:31:48.757Z,91.40
2019-03-21T09:34:14.535Z,91.36
2019-03-21T09:36:40.429Z,92.25
2019-03-21T09:39:06.317Z,92.06
2019-03-21T09:41:32.113Z,92.15
2019-03-21T09:43:57.899Z,92.09
2019-03-21T09:46:23.687Z,92.13
2019-03-21T09:48:49.470Z,92.31
2019-03-21T09:51:15.270Z,92.08
2019-03-21T09:53:41.044Z,91.83
2019-03-21T09:56:06.860Z,91.46
2019-03-21T09:58:32.636Z,91.46
2019-03-21T10:00:58.430Z,91.34
2019-03-21T10:03:24.213Z,91.47
2019-03-21T10:05:50.007Z,91.49
2019-03-21T10:08:15.790Z,91.38
2019-03-21T10:10:41.582Z,91.53
2019-03-21T10:13:07.356Z,91.05
2019-03-21T10:15:33.260Z,91.16
2019-03-21T10:17:59.051Z,91.28
2019-03-21T10:20:24.844Z,91.15
2019-03-21T10:22:50.639Z,91.21
2019-03-21T10:25:16.418Z,90.92
2019-03-21T10:27:42.213Z,90.76
2019-03-21T10:30:08.804Z,90.71
2019-03-21T10:32:34.603Z,90.65
2019-03-21T10:35:00.390Z,90.20
2019-03-21T10:37:26.178Z,89.99
2019-03-21T10:39:52.074Z,89.95
2019-03-21T10:42:17.864Z,89.83
2019-03-21T10:44:43.644Z,89.62
2019-03-21T10:47:09.499Z,89.09
2019-03-21T10:49:35.227Z,89.09
2019-03-21T10:52:01.023Z,88.69
2019-03-21T10:54:26.809Z,88.42
2019-03-21T10:56:52.605Z,88.14
2019-03-21T10:59:18.381Z,88.17
2019-03-21T11:01:44.199Z,88.30
2019-03-21T11:04:09.975Z,88.21
2019-03-21T11:06:35.766Z,88.31
2019-03-21T11:09:01.562Z,88.31
2019-03-21T11:11:27.444Z,87.92
2019-03-21T11:13:53.239Z,88.11
2019-03-21T11:16:19.016Z,88.00
2019-03-21T11:18:44.817Z,87.72
2019-03-21T11:21:10.698Z,87.70
2019-03-21T11:23:36.500Z,87.76
2019-03-21T11:26:02.276Z,87.65
2019-03-21T11:28:28.060Z,87.79
2019-03-21T11:30:53.847Z,87.56
2019-03-21T11:33:19.642Z,87.21
2019-03-21T11:35:45.425Z,87.17
2019-03-21T11:38:11.225Z,86.79
2019-03-21T11:40:37.015Z,86.87
2019-03-21T11:43:04.507Z,86.87
2019-03-21T11:45:30.311Z,87.15
2019-03-21T11:47:56.078Z,87.02
2019-03-21T11:50:21.847Z,87.01
2019-03-21T11:52:47.642Z,86.79
2019-03-21T11:55:13.543Z,86.55
2019-03-21T11:57:39.341Z,86.26
2019-03-21T12:00:05.874Z,85.87
2019-03-21T12:02:31.722Z,85.21
2019-03-21T12:04:57.500Z,85.20
2019-03-21T12:07:23.280Z,85.04
2019-03-21T12:09:49.071Z,84.79
2019-03-21T12:12:14.956Z,84.73
2019-03-21T12:14:40.756Z,84.38
2019-03-21T12:17:06.544Z,84.25
2019-03-21T12:19:32.346Z,83.70
2019-03-21T12:21:58.132Z,83.61
2019-03-21T12:24:23.931Z,83.21
2019-03-21T12:26:49.722Z,83.38
2019-03-21T12:29:15.510Z,83.64
2019-03-21T12:31:41.337Z,83.73
2019-03-21T12:34:07.230Z,83.51
2019-03-21T12:36:33.010Z,83.64
2019-03-21T12:38:58.869Z,83.58
2019-03-21T12:41:24.654Z,83.52
2019-03-21T12:43:50.454Z,83.53
2019-03-21T12:46:16.231Z,83.28
2019-03-21T12:48:42.022Z,83.54
2019-03-21T12:51:07.806Z,83.53
2019-03-21T12:53:33.608Z,83.65
2019-03-21T12:55:59.389Z,83.55
2019-03-21T12:58:37.171Z,83.74
2019-03-21T13:01:02.962Z,83.63
2019-03-21T13:03:28.768Z,83.63
2019-03-21T13:05:54.553Z,83.08
2019-03-21T13:08:20.363Z,82.62
2019-03-21T13:10:46.146Z,82.79
2019-03-21T13:13:12.038Z,83.19
2019-03-21T13:15:37.923Z,83.42
2019-03-21T13:18:04.223Z,83.21
2019-03-21T13:20:30.018Z,83.50
2019-03-21T13:22:55.800Z,83.40
2019-03-21T13:25:21.607Z,82.99
2019-03-21T13:27:47.391Z,82.81
2019-03-21T13:30:13.191Z,82.62
2019-03-21T13:32:38.958Z,82.69
2019-03-21T13:35:06.306Z,82.64
2019-03-21T13:37:32.449Z,82.37
2019-03-21T13:39:58.237Z,82.37
2019-03-21T13:42:24.015Z,82.69
2019-03-21T13:44:49.801Z,82.85
2019-03-21T13:47:15.592Z,83.01
2019-03-21T13:49:41.382Z,83.17
2019-03-21T13:52:07.177Z,82.95
2019-03-21T13:54:32.951Z,82.87
2019-03-21T13:56:58.738Z,83.36
2019-03-21T13:59:24.529Z,83.39
2019-03-21T14:01:50.339Z,83.40
2019-03-21T14:04:16.114Z,83.53
2019-03-21T14:06:41.902Z,83.54
2019-03-21T14:09:07.684Z,83.46
2019-03-21T14:11:33.484Z,83.40
2019-03-21T14:13:59.273Z,83.21
2019-03-21T14:16:25.072Z,83.27
2019-03-21T14:18:50.867Z,83.42
2019-03-21T14:21:16.649Z,83.33
2019-03-21T14:23:43.711Z,83.57
2019-03-21T14:26:09.652Z,83.87
2019-03-21T14:28:35.428Z,83.87
2019-03-21T14:31:01.224Z,83.08
2019-03-21T14:33:27.001Z,83.00
2019-03-21T14:35:52.808Z,82.70
2019-03-21T14:38:26.079Z,82.47
2019-03-21T14:40:46.315Z,82.59
2019-03-21T14:43:12.091Z,82.59
2019-03-21T14:45:37.879Z,82.75
2019-03-21T14:48:03.654Z,82.60
2019-03-21T14:50:29.436Z,82.33
2019-03-21T14:52:55.228Z,82.15
2019-03-21T14:55:21.006Z,82.65
2019-03-21T14:57:46.802Z,82.46
2019-03-21T15:00:16.737Z,82.50
2019-03-21T15:02:42.530Z,82.45
2019-03-21T15:05:08.308Z,82.56
2019-03-21T15:07:34.500Z,82.53
2019-03-21T15:10:00.385Z,82.61
2019-03-21T15:12:26.175Z,82.87
2019-03-21T15:14:51.953Z,82.90
2019-03-21T15:17:17.735Z,82.71
2019-03-21T15:19:43.523Z,82.75
2019-03-21T15:22:09.316Z,82.53
2019-03-21T15:24:35.091Z,82.04
2019-03-21T15:27:00.877Z,81.74
2019-03-21T15:29:26.670Z,81.85
2019-03-21T15:31:52.464Z,81.69
2019-03-21T15:34:18.240Z,81.78
2019-03-21T15:36:44.032Z,81.74
2019-03-21T15:39:09.846Z,81.66
2019-03-21T15:41:36.532Z,81.33
2019-03-21T15:44:02.323Z,81.70
2019-03-21T15:46:28.123Z,81.87
2019-03-21T15:48:53.909Z,81.65
2019-03-21T15:51:19.687Z,81.55
2019-03-21T15:53:54.883Z,81.70
2019-03-21T15:56:13.166Z,81.87
2019-03-21T15:58:38.959Z,81.87
2019-03-21T16:01:04.734Z,81.71
2019-03-21T16:03:30.611Z,81.90
2019-03-21T16:05:56.388Z,82.03
2019-03-21T16:08:22.178Z,82.03
2019-03-21T16:10:48.354Z,82.10
2019-03-21T16:13:14.146Z,82.38
2019-03-21T16:15:39.923Z,82.22
2019-03-21T16:18:05.727Z,82.19
2019-03-21T16:20:31.643Z,82.47
2019-03-21T16:22:57.440Z,82.68
2019-03-21T16:25:23.228Z,82.68
2019-03-21T16:27:49.027Z,82.89
2019-03-21T16:30:14.910Z,83.00
2019-03-21T16:32:40.694Z,83.13
2019-03-21T16:35:09.581Z,83.26
2019-03-21T16:37:35.465Z,83.21
2019-03-21T16:40:09.064Z,83.83
2019-03-21T16:42:37.086Z,83.97
2019-03-21T16:45:07.567Z,83.97
2019-03-21T16:47:33.352Z,83.96
2019-03-21T16:49:59.147Z,84.26
2019-03-21T16:52:24.973Z,84.19
2019-03-21T16:54:50.754Z,84.08
2019-03-21T16:57:16.540Z,84.39
2019-03-21T16:59:42.336Z,84.59
2019-03-21T17:02:08.175Z,84.85
2019-03-21T17:04:33.963Z,84.85
2019-03-21T17:06:59.750Z,85.11
2019-03-21T17:09:25.551Z,85.04
2019-03-21T17:11:51.312Z,85.10
2019-03-21T17:14:17.102Z,85.50
2019-03-21T17:16:42.884Z,85.42
2019-03-21T17:19:08.708Z,85.39
2019-03-21T17:21:34.484Z,85.33
2019-03-21T17:24:00.242Z,86.01
2019-03-21T17:26:26.019Z,86.15
2019-03-21T17:28:51.820Z,85.99
2019-03-21T17:31:17.603Z,85.97
2019-03-21T17:33:43.445Z,86.09
2019-03-21T17:36:09.321Z,86.08
2019-03-21T17:38:35.183Z,86.51
2019-03-21T17:41:00.926Z,86.92
2019-03-21T17:43:26.699Z,87.17
2019-03-21T17:45:52.783Z,87.35
2019-03-21T17:48:18.647Z,87.06
2019-03-21T17:50:44.435Z,87.20
2019-03-21T17:53:10.211Z,87.24
2019-03-21T17:55:36.008Z,87.36
2019-03-21T17:58:01.791Z,87.25
2019-03-21T18:00:32.460Z,87.55
2019-03-21T18:02:58.396Z,87.68
2019-03-21T18:05:24.164Z,87.68
2019-03-21T18:07:49.940Z,88.19
2019-03-21T18:10:24.959Z,87.86
2019-03-21T18:12:50.749Z,88.13
2019-03-21T18:15:16.568Z,88.13
2019-03-21T18:17:42.344Z,87.95
2019-03-21T18:20:08.743Z,87.92
2019-03-21T18:22:34.533Z,87.33
2019-03-21T18:25:00.328Z,87.33
2019-03-21T18:27:26.123Z,87.71
2019-03-21T18:29:51.904Z,87.62
2019-03-21T18:32:17.696Z,87.61
2019-03-21T18:34:43.473Z,87.49
2019-03-21T18:37:09.269Z,87.68
2019-03-21T18:39:35.056Z,87.73
2019-03-21T18:42:00.843Z,87.76
2019-03-21T18:44:26.625Z,87.61
2019-03-21T18:46:52.427Z,87.75
2019-03-21T18:49:18.199Z,87.75
2019-03-21T18:51:43.995Z,87.81
2019-03-21T18:54:09.779Z,87.96
2019-03-21T18:56:35.571Z,87.69
2019-03-21T18:59:01.420Z,87.97
2019-03-21T19:01:27.247Z,88.14
2019-03-21T19:03:53.019Z,87.98
2019-03-21T19:06:18.804Z,88.16
2019-03-21T19:08:44.757Z,88.18
2019-03-21T19:11:10.566Z,88.41
2019-03-21T19:13:36.340Z,88.55
2019-03-21T19:16:02.134Z,88.52
2019-03-21T19:18:27.953Z,88.94
2019-03-21T19:20:53.827Z,89.23
2019-03-21T19:23:19.643Z,89.13
2019-03-21T19:25:45.456Z,89.36
2019-03-21T19:28:11.289Z,89.42
2019-03-21T19:30:37.291Z,89.82
2019-03-21T19:33:03.159Z,90.09
2019-03-21T19:35:29.986Z,90.31
2019-03-21T19:37:55.787Z,90.34
2019-03-21T19:40:21.568Z,90.70
2019-03-21T19:42:47.380Z,90.92
2019-03-21T19:45:15.556Z,90.83
2019-03-21T19:47:41.353Z,91.07
2019-03-21T19:50:13.047Z,90.89
2019-03-21T19:52:38.851Z,91.51
2019-03-21T19:55:05.132Z,91.51
2019-03-21T19:57:30.935Z,91.75
2019-03-21T19:59:56.722Z,91.75
2019-03-21T20:02:22.503Z,91.78
2019-03-21T20:04:48.527Z,91.81
2019-03-21T20:07:14.347Z,92.07
2019-03-21T20:09:40.122Z,92.13
2019-03-21T20:12:05.912Z,91.98
2019-03-21T20:14:31.711Z,91.83
2019-03-21T20:16:57.489Z,91.73
2019-03-21T20:19:23.301Z,91.88
2019-03-21T20:21:49.080Z,92.12
2019-03-21T20:24:14.876Z,92.12
2019-03-21T20:26:40.657Z,92.07
2019-03-21T20:29:06.453Z,91.89
2019-03-21T20:31:32.243Z,92.01
2019-03-21T20:33:58.037Z,92.01
2019-03-21T20:36:23.821Z,92.16
2019-03-21T20:38:49.606Z,92.38
2019-03-21T20:41:15.384Z,92.67
2019-03-21T20:43:41.181Z,92.67
2019-03-21T20:46:06.957Z,93.17
2019-03-21T20:48:32.552Z,93.82
2019-03-21T20:50:58.337Z,93.79
2019-03-21T20:53:24.230Z,93.99
2019-03-21T20:55:53.887Z,93.88
2019-03-21T20:58:17.832Z,94.32
2019-03-21T21:00:43.611Z,94.32
2019-03-21T21:03:09.391Z,94.17
2019-03-21T21:05:35.189Z,94.18
2019-03-21T21:08:00.966Z,94.48
2019-03-21T21:10:26.760Z,94.27
2019-03-21T21:12:52.547Z,94.52
2019-03-21T21:15:18.336Z,94.69
2019-03-21T21:17:44.127Z,94.67
2019-03-21T21:20:17.211Z,94.70
2019-03-21T21:22:42.994Z,94.59
2019-03-21T21:25:08.991Z,94.72
2019-03-21T21:27:34.782Z,94.92
2019-03-21T21:30:00.598Z,95.17
2019-03-21T21:32:26.375Z,95.17
2019-03-21T21:34:54.572Z,95.44
2019-03-21T21:37:20.187Z,95.38
2019-03-21T21:39:46.029Z,95.24
2019-03-21T21:42:11.811Z,95.52
2019-03-21T21:44:37.600Z,95.47
2019-03-21T21:47:03.384Z,95.26
2019-03-21T21:49:29.181Z,95.34
2019-03-21T21:51:54.955Z,95.38
2019-03-21T21:54:20.771Z,95.50
2019-03-21T21:56:46.551Z,95.33
2019-03-21T21:59:12.331Z,95.34
2019-03-21T22:01:38.122Z,95.17
2019-03-21T22:04:05.139Z,95.22
2019-03-21T22:06:31.013Z,95.39
2019-03-21T22:08:56.785Z,95.50
2019-03-21T22:11:22.585Z,95.54
2019-03-21T22:13:48.364Z,95.69
2019-03-21T22:16:14.241Z,95.66
2019-03-21T22:18:40.035Z,95.89
2019-03-21T22:21:05.823Z,95.79
2019-03-21T22:23:31.597Z,95.65
2019-03-21T22:25:57.394Z,95.69
2019-03-21T22:28:23.166Z,95.60
2019-03-21T22:30:48.958Z,95.42
2019-03-21T22:33:14.732Z,95.60
2019-03-21T22:35:40.527Z,95.68
2019-03-21T22:38:06.306Z,95.60
2019-03-21T22:40:32.095Z,95.57
2019-03-21T22:42:57.873Z,95.51
2019-03-21T22:45:23.678Z,95.41
2019-03-21T22:47:50.736Z,95.55
2019-03-21T22:50:16.745Z,95.65
2019-03-21T22:52:43.332Z,95.51
2019-03-21T22:55:09.428Z,95.51
2019-03-21T22:57:35.221Z,95.51
2019-03-21T23:00:00.998Z,95.51
2019-03-21T23:02:26.897Z,95.53
2019-03-21T23:04:52.667Z,95.31
2019-03-21T23:07:18.459Z,95.39
2019-03-21T23:09:44.253Z,95.68
2019-03-21T23:12:10.064Z,95.74
2019-03-21T23:14:35.827Z,96.03
2019-03-21T23:17:01.622Z,95.60
2019-03-21T23:19:27.423Z,95.63
2019-03-21T23:21:53.217Z,95.67
2019-03-21T23:24:19.000Z,95.83
2019-03-21T23:26:52.875Z,95.72
2019-03-21T23:29:12.474Z,95.66
2019-03-21T23:31:38.279Z,95.68
2019-03-21T23:34:04.053Z,95.72
2019-03-21T23:36:29.837Z,95.70
2019-03-21T23:38:55.632Z,95.64
2019-03-21T23:41:21.408Z,95.81
2019-03-21T23:43:47.204Z,95.79
2019-03-21T23:46:12.979Z,95.80
2019-03-21T23:48:38.772Z,95.69
2019-03-21T23:51:04.555Z,95.46
2019-03-21T23:53:30.342Z,95.55
2019-03-21T23:55:56.121Z,95.57
2019-03-21T23:58:21.922Z,95.55
